Time;durP1;ratioP1;P1;durP2;ratioP2;P2;SDS_P1;SDS_P2;PMS_P1;PMS_P2;Temp;Humidity;BMP_temperature;BMP_pressure;BME280_temperature;BME280_humidity;BME280_pressure;Samples;Min_cycle;Max_cycle;Signal;HPM_P1;HPM_P2
2023/01/22 01:30:30;;;;;;;;;;;19.40;96.70;;;;;;6298444;22;19930;-65
2023/01/22 01:32:57;;;;;;;;;;;19.40;96.60;;;;;;6303816;22;19918;-67
2023/01/22 01:35:24;;;;;;;;;;;19.40;96.60;;;;;;6303030;22;19934;-68
2023/01/22 01:37:52;;;;;;;;;;;19.40;96.60;;;;;;6276095;22;19909;-71
2023/01/22 01:40:18;;;;;;;;;;;19.40;96.70;;;;;;6273998;22;19941;-65
2023/01/22 01:42:45;;;;;;;;;;;19.50;96.70;;;;;;6301852;22;20319;-67
2023/01/22 01:45:25;;;;;;;;;;;19.50;96.80;;;;;;6274749;22;19907;-67
2023/01/22 01:47:53;;;;;;;;;;;19.60;96.80;;;;;;6302891;22;19911;-67
2023/01/22 01:50:20;;;;;;;;;;;19.50;96.70;;;;;;6301233;22;19911;-67
2023/01/22 01:52:46;;;;;;;;;;;19.40;96.60;;;;;;6275709;22;19914;-68
2023/01/22 01:55:14;;;;;;;;;;;19.50;96.70;;;;;;6302821;22;19993;-67
2023/01/22 01:57:40;;;;;;;;;;;19.50;96.80;;;;;;6275772;22;19911;-67
2023/01/22 02:00:09;;;;;;;;;;;19.50;96.70;;;;;;6303555;22;19903;-67
2023/01/22 02:02:36;;;;;;;;;;;19.50;96.80;;;;;;6301528;22;20030;-67
2023/01/22 02:05:03;;;;;;;;;;;19.50;96.90;;;;;;6302376;22;19914;-67
2023/01/22 02:07:30;;;;;;;;;;;19.60;96.90;;;;;;6302617;22;19957;-67
2023/01/22 02:09:56;;;;;;;;;;;19.60;97.00;;;;;;6303566;22;19903;-68
2023/01/22 02:12:23;;;;;;;;;;;19.60;96.80;;;;;;6303475;22;20326;-68
2023/01/22 02:14:50;;;;;;;;;;;19.60;97.00;;;;;;6276175;22;19910;-67
2023/01/22 02:17:20;;;;;;;;;;;19.50;96.80;;;;;;6303471;22;20072;-67
2023/01/22 02:19:47;;;;;;;;;;;19.50;96.70;;;;;;6275761;22;19956;-67
2023/01/22 02:22:17;;;;;;;;;;;19.50;96.80;;;;;;6303824;22;20238;-68
2023/01/22 02:24:44;;;;;;;;;;;19.50;96.70;;;;;;6246837;22;19915;-68
2023/01/22 02:27:11;;;;;;;;;;;19.50;96.90;;;;;;6303847;22;19957;-68
2023/01/22 03:10:58;;;;;;;;;;;19.70;96.80;;;;;;6300714;22;19971;-67
2023/01/22 03:21:42;;;;;;;;;;;19.20;96.10;;;;;;6301199;22;20379;-67
2023/01/22 03:24:09;;;;;;;;;;;19.10;96.20;;;;;;6298541;22;19914;-67
2023/01/22 03:26:36;;;;;;;;;;;19.00;96.10;;;;;;6302317;22;20404;-67
2023/01/22 03:29:02;;;;;;;;;;;18.90;96.40;;;;;;6302548;22;19973;-67
2023/01/22 03:31:29;;;;;;;;;;;18.90;96.40;;;;;;6302062;22;19914;-68
2023/01/22 03:33:56;;;;;;;;;;;19.00;96.60;;;;;;6302050;22;19907;-68
2023/01/22 03:36:23;;;;;;;;;;;19.00;96.50;;;;;;6300356;22;19909;-68
2023/01/22 03:38:49;;;;;;;;;;;19.10;96.70;;;;;;6301761;22;19988;-68
2023/01/22 03:41:16;;;;;;;;;;;19.20;96.80;;;;;;6301193;22;20334;-67
2023/01/22 03:43:43;;;;;;;;;;;19.20;96.70;;;;;;6301458;22;19959;-67
2023/01/22 03:46:11;;;;;;;;;;;19.10;96.50;;;;;;6302077;22;19942;-67
2023/01/22 03:48:38;;;;;;;;;;;19.20;96.70;;;;;;6301740;22;19953;-67
2023/01/22 03:51:05;;;;;;;;;;;19.30;96.70;;;;;;6302315;22;19906;-67
2023/01/22 03:53:32;;;;;;;;;;;19.20;96.70;;;;;;6300743;22;19953;-69
2023/01/22 03:55:59;;;;;;;;;;;19.30;96.90;;;;;;6300310;22;19907;-71
2023/01/22 03:58:26;;;;;;;;;;;19.40;97.00;;;;;;6276015;22;19903;-69
2023/01/22 04:00:56;;;;;;;;;;;19.40;97.00;;;;;;6302182;22;19903;-65
2023/01/22 04:03:26;;;;;;;;;;;19.50;96.90;;;;;;6301321;22;19907;-67
2023/01/22 04:05:53;;;;;;;;;;;19.50;96.90;;;;;;6302243;22;19907;-68
2023/01/22 04:08:20;;;;;;;;;;;19.50;96.90;;;;;;6302756;22;19919;-66
2023/01/22 04:10:46;;;;;;;;;;;19.50;96.80;;;;;;6302549;22;19922;-65
2023/01/22 04:13:13;;;;;;;;;;;19.50;96.80;;;;;;6301675;22;19910;-68
2023/01/22 04:15:42;;;;;;;;;;;19.50;96.70;;;;;;6301992;22;19906;-71
2023/01/22 04:18:08;;;;;;;;;;;19.50;96.80;;;;;;6302764;22;19907;-69
2023/01/22 04:20:35;;;;;;;;;;;19.50;96.90;;;;;;6304002;22;19935;-67
2023/01/22 04:23:02;;;;;;;;;;;19.60;96.90;;;;;;6301182;22;20004;-69
2023/01/22 04:25:28;;;;;;;;;;;19.60;96.90;;;;;;6303407;22;19911;-69
2023/01/22 04:27:55;;;;;;;;;;;19.60;96.80;;;;;;6303108;22;20017;-68
2023/01/22 04:30:22;;;;;;;;;;;19.60;96.90;;;;;;6304770;22;20233;-69
2023/01/22 04:32:48;;;;;;;;;;;19.60;96.90;;;;;;6276995;22;19911;-69
2023/01/22 04:35:15;;;;;;;;;;;19.60;96.90;;;;;;6306872;22;19973;-68
2023/01/22 04:37:42;;;;;;;;;;;19.60;96.80;;;;;;6306452;22;19903;-70
2023/01/22 04:40:09;;;;;;;;;;;19.60;96.70;;;;;;6306076;22;19907;-68
2023/01/22 04:42:35;;;;;;;;;;;19.60;96.20;;;;;;6279371;22;19977;-69
2023/01/22 04:45:02;;;;;;;;;;;19.60;96.30;;;;;;6278742;22;19907;-69
2023/01/22 04:47:29;;;;;;;;;;;19.70;96.10;;;;;;6306717;22;19934;-68
2023/01/22 04:49:55;;;;;;;;;;;19.70;96.10;;;;;;6308264;22;19957;-68
2023/01/22 04:52:26;;;;;;;;;;;19.70;96.20;;;;;;6307026;22;20260;-67
2023/01/22 04:54:52;;;;;;;;;;;19.80;96.30;;;;;;6308651;22;19976;-68
2023/01/22 04:57:19;;;;;;;;;;;19.80;96.10;;;;;;6307850;22;19910;-69
2023/01/22 04:59:46;;;;;;;;;;;19.80;96.30;;;;;;6308168;22;19930;-69
2023/01/22 05:02:13;;;;;;;;;;;19.80;96.00;;;;;;6307584;22;19907;-68
2023/01/22 05:04:39;;;;;;;;;;;19.70;95.30;;;;;;6307978;22;19907;-69
2023/01/22 09:28:26;;;;;;;;;;;18.70;96.50;;;;;;6236370;22;19978;-70
2023/01/22 09:30:53;;;;;;;;;;;18.70;96.50;;;;;;6212499;23;19916;-70
2023/01/22 09:33:20;;;;;;;;;;;18.70;96.50;;;;;;6186658;23;20268;-70
2023/01/22 09:35:47;;;;;;;;;;;18.70;96.60;;;;;;6213861;23;19904;-70
2023/01/22 09:38:14;;;;;;;;;;;18.70;96.60;;;;;;6212994;23;19911;-69
2023/01/22 09:41:01;;;;;;;;;;;18.70;96.60;;;;;;6213100;23;20260;-71
2023/01/22 09:43:38;;;;;;;;;;;18.60;96.20;;;;;;6214785;23;19908;-69
2023/01/22 09:46:08;;;;;;;;;;;18.60;96.40;;;;;;6188339;23;19904;-68
2023/01/22 09:48:44;;;;;;;;;;;18.60;96.20;;;;;;6187952;23;19912;-70
2023/01/22 09:51:14;;;;;;;;;;;18.50;96.20;;;;;;6212505;23;19930;-70
2023/01/22 09:53:41;;;;;;;;;;;18.60;96.30;;;;;;6187865;23;19907;-70
2023/01/22 09:56:11;;;;;;;;;;;18.50;96.10;;;;;;6187480;23;19908;-70
2023/01/22 09:58:38;;;;;;;;;;;18.40;96.00;;;;;;6186876;23;19908;-69
2023/01/22 10:01:05;;;;;;;;;;;18.50;96.20;;;;;;6188980;23;20350;-68
2023/01/22 10:03:35;;;;;;;;;;;18.40;96.00;;;;;;6188146;23;19904;-68
2023/01/22 10:06:19;;;;;;;;;;;18.40;95.80;;;;;;6214889;23;19904;-69
2023/01/22 10:08:52;;;;;;;;;;;18.40;96.10;;;;;;6212256;23;19912;-68
2023/01/22 10:11:19;;;;;;;;;;;18.40;96.00;;;;;;6214241;23;19908;-68
2023/01/22 10:13:52;;;;;;;;;;;18.30;95.90;;;;;;6188907;23;19915;-68
2023/01/22 10:16:19;;;;;;;;;;;18.30;95.90;;;;;;6187601;23;19938;-68
2023/01/22 10:18:45;;;;;;;;;;;18.30;95.90;;;;;;6213490;23;19915;-68
2023/01/22 10:21:15;;;;;;;;;;;18.30;95.90;;;;;;6186845;23;20378;-68
2023/01/22 10:23:42;;;;;;;;;;;18.30;95.90;;;;;;6214241;23;19988;-68
2023/01/22 10:26:18;;;;;;;;;;;18.30;96.00;;;;;;6188038;23;19904;-68
2023/01/22 11:03:23;;;;;;;;;;;18.40;96.10;;;;;;6234137;22;20021;-66
2023/01/22 11:05:51;;;;;;;;;;;18.40;96.10;;;;;;6211445;23;19924;-68
2023/01/22 11:08:18;;;;;;;;;;;18.50;96.20;;;;;;6214838;23;20337;-68
2023/01/22 11:10:46;;;;;;;;;;;18.50;96.10;;;;;;6215367;23;20380;-67
2023/01/22 11:13:13;;;;;;;;;;;18.40;96.20;;;;;;6241439;23;19904;-66
2023/01/22 11:15:43;;;;;;;;;;;18.50;96.20;;;;;;6241056;23;19907;-67
2023/01/22 11:18:27;;;;;;;;;;;18.50;96.20;;;;;;6240517;23;19907;-65
2023/01/22 11:20:55;;;;;;;;;;;18.40;96.30;;;;;;6212868;23;19911;-67
2023/01/22 11:23:30;;;;;;;;;;;18.40;96.30;;;;;;6243933;23;19911;-68
2023/01/22 11:26:00;;;;;;;;;;;18.40;96.40;;;;;;6242848;23;19908;-68
2023/01/22 11:28:40;;;;;;;;;;;18.50;96.50;;;;;;6242428;23;19960;-69
2023/01/22 11:31:23;;;;;;;;;;;18.40;96.50;;;;;;6217518;23;19903;-68
2023/01/22 11:33:49;;;;;;;;;;;18.40;96.40;;;;;;6217671;23;19931;-68
2023/01/22 11:36:18;;;;;;;;;;;18.40;96.40;;;;;;6243501;23;19907;-68
2023/01/22 11:38:50;;;;;;;;;;;18.50;96.50;;;;;;6217394;23;19908;-68
2023/01/22 11:41:26;;;;;;;;;;;18.40;96.50;;;;;;6218138;23;20294;-68
2023/01/22 11:43:55;;;;;;;;;;;18.30;96.40;;;;;;6243823;23;19991;-68
2023/01/22 11:46:42;;;;;;;;;;;18.30;96.40;;;;;;6244148;22;19935;-67
2023/01/22 11:49:31;;;;;;;;;;;18.30;96.40;;;;;;6242754;23;20287;-68
2023/01/22 11:52:09;;;;;;;;;;;18.30;96.40;;;;;;6217725;23;20207;-69
2023/01/22 11:54:39;;;;;;;;;;;18.30;96.40;;;;;;6218217;23;19914;-68
2023/01/22 11:57:08;;;;;;;;;;;18.30;96.50;;;;;;6217332;23;19911;-67
2023/01/22 11:59:35;;;;;;;;;;;18.30;96.50;;;;;;6243773;23;19953;-66
2023/01/22 12:02:20;;;;;;;;;;;18.30;96.60;;;;;;6244504;23;19911;-67
2023/01/22 12:04:52;;;;;;;;;;;18.30;96.60;;;;;;6244310;22;19916;-67
2023/01/22 12:07:34;;;;;;;;;;;18.30;96.70;;;;;;6244069;23;19957;-66
2023/01/22 12:10:01;;;;;;;;;;;18.30;96.70;;;;;;6244384;23;20349;-66
2023/01/22 12:12:34;;;;;;;;;;;18.30;96.70;;;;;;6244428;23;19911;-67
2023/01/22 12:15:05;;;;;;;;;;;18.30;96.70;;;;;;6191878;23;20277;-67
2023/01/22 12:17:34;;;;;;;;;;;18.40;96.80;;;;;;6217133;23;19927;-66
2023/01/22 12:20:14;;;;;;;;;;;18.40;96.80;;;;;;6244664;23;19939;-66
2023/01/22 12:22:45;;;;;;;;;;;18.40;96.80;;;;;;6217342;23;19903;-67
2023/01/22 12:25:14;;;;;;;;;;;18.40;96.90;;;;;;6217651;23;20263;-67
2023/01/22 12:28:01;;;;;;;;;;;18.40;96.90;;;;;;6244051;23;19907;-67
2023/01/22 12:30:30;;;;;;;;;;;18.40;96.80;;;;;;6218421;23;19912;-67
2023/01/22 12:32:58;;;;;;;;;;;18.40;96.80;;;;;;6216904;23;19908;-67
2023/01/22 12:35:25;;;;;;;;;;;18.40;96.90;;;;;;6216427;23;20231;-67
2023/01/22 12:37:52;;;;;;;;;;;18.40;96.90;;;;;;6244397;23;20333;-67
2023/01/22 12:40:34;;;;;;;;;;;18.40;96.90;;;;;;6243541;23;19903;-67
2023/01/22 12:43:05;;;;;;;;;;;18.30;96.80;;;;;;6245754;23;19908;-67
2023/01/22 12:45:44;;;;;;;;;;;18.30;96.70;;;;;;6218774;23;19908;-67
2023/01/22 12:48:29;;;;;;;;;;;18.30;96.70;;;;;;6245904;23;19908;-67
2023/01/22 12:50:56;;;;;;;;;;;18.30;96.60;;;;;;6217532;23;19908;-66
2023/01/22 12:53:29;;;;;;;;;;;18.20;96.50;;;;;;6218499;23;19914;-67
2023/01/22 12:56:03;;;;;;;;;;;18.30;96.60;;;;;;6245570;23;19934;-66
2023/01/22 12:58:31;;;;;;;;;;;18.30;96.40;;;;;;6245391;23;19926;-66
2023/01/22 13:01:00;;;;;;;;;;;18.30;96.50;;;;;;6219009;23;19914;-66
2023/01/22 13:03:28;;;;;;;;;;;18.20;96.60;;;;;;6244860;23;19997;-67
2023/01/22 13:05:55;;;;;;;;;;;18.20;96.50;;;;;;6245002;23;20366;-67
2023/01/22 13:08:23;;;;;;;;;;;18.20;96.50;;;;;;6245766;23;19995;-67
2023/01/22 13:10:54;;;;;;;;;;;18.20;96.60;;;;;;6219762;23;19908;-67
2023/01/22 13:13:20;;;;;;;;;;;18.30;96.60;;;;;;6245350;23;19904;-69
2023/01/22 13:15:54;;;;;;;;;;;18.30;96.50;;;;;;6245444;23;20248;-67
2023/01/22 13:18:23;;;;;;;;;;;18.20;96.50;;;;;;6218484;23;19914;-66
2023/01/22 13:21:07;;;;;;;;;;;18.30;96.50;;;;;;6246423;23;19908;-67
2023/01/22 13:23:35;;;;;;;;;;;18.20;96.50;;;;;;6218908;23;20059;-67
2023/01/22 13:26:01;;;;;;;;;;;18.20;96.50;;;;;;6244376;23;19908;-67
2023/01/22 13:28:28;;;;;;;;;;;18.20;96.60;;;;;;6244728;23;19920;-67
2023/01/22 13:31:04;;;;;;;;;;;18.30;96.60;;;;;;6245892;23;19910;-68
2023/01/22 13:33:31;;;;;;;;;;;18.30;96.60;;;;;;6219376;23;19904;-67
2023/01/22 13:35:58;;;;;;;;;;;18.30;96.50;;;;;;6219010;23;19908;-67
2023/01/22 13:38:25;;;;;;;;;;;18.30;96.60;;;;;;6244917;23;19903;-68
2023/01/22 13:40:55;;;;;;;;;;;18.30;96.50;;;;;;6245545;23;19904;-67
2023/01/22 13:43:22;;;;;;;;;;;18.30;96.50;;;;;;6245778;23;19982;-68
2023/01/22 13:45:53;;;;;;;;;;;18.30;96.50;;;;;;6219484;23;19914;-67
2023/01/22 13:48:20;;;;;;;;;;;18.30;96.50;;;;;;6218360;23;19986;-67
2023/01/22 13:50:50;;;;;;;;;;;18.30;96.50;;;;;;6219184;23;19910;-67
2023/01/22 13:53:28;;;;;;;;;;;18.30;96.50;;;;;;6217667;23;20817;-67
2023/01/22 13:55:55;;;;;;;;;;;18.20;96.50;;;;;;6218687;23;20239;-67
2023/01/22 13:58:31;;;;;;;;;;;18.30;96.40;;;;;;6218130;23;19904;-67
2023/01/22 14:00:58;;;;;;;;;;;18.20;96.50;;;;;;6245461;23;19908;-67
2023/01/22 14:03:25;;;;;;;;;;;18.20;96.40;;;;;;6245701;23;19904;-67
2023/01/22 14:06:12;;;;;;;;;;;18.30;96.50;;;;;;6245014;23;20290;-67
2023/01/22 14:08:51;;;;;;;;;;;18.30;96.50;;;;;;6244976;23;19992;-68
2023/01/22 14:11:17;;;;;;;;;;;18.20;96.50;;;;;;6218294;23;19907;-67
2023/01/22 14:13:45;;;;;;;;;;;18.30;96.50;;;;;;6244543;22;20188;-68
2023/01/22 14:16:11;;;;;;;;;;;18.20;96.50;;;;;;6244790;23;19915;-67
2023/01/22 14:18:38;;;;;;;;;;;18.20;96.50;;;;;;6245054;23;19908;-67
2023/01/22 14:21:05;;;;;;;;;;;18.20;96.50;;;;;;6218235;23;19903;-67
2023/01/22 14:23:32;;;;;;;;;;;18.20;96.50;;;;;;6244187;23;19973;-67
2023/01/22 14:26:00;;;;;;;;;;;18.20;96.50;;;;;;6245183;23;19910;-67
2023/01/22 14:28:28;;;;;;;;;;;18.20;96.50;;;;;;6245105;23;19925;-67
2023/01/22 14:30:54;;;;;;;;;;;18.20;96.50;;;;;;6218327;23;19910;-67
2023/01/22 14:33:25;;;;;;;;;;;18.20;96.50;;;;;;6218162;23;19950;-67
2023/01/22 14:35:52;;;;;;;;;;;18.20;96.60;;;;;;6218197;23;19907;-67
2023/01/22 14:38:18;;;;;;;;;;;18.10;96.50;;;;;;6244706;23;19904;-67
2023/01/22 14:40:45;;;;;;;;;;;18.20;96.60;;;;;;6244781;23;19907;-67
2023/01/22 14:43:12;;;;;;;;;;;18.10;96.50;;;;;;6244780;23;20311;-67
2023/01/22 14:45:39;;;;;;;;;;;18.10;96.60;;;;;;6244766;23;20234;-67
2023/01/22 14:48:06;;;;;;;;;;;18.10;96.50;;;;;;6218872;23;19939;-67
2023/01/22 14:50:33;;;;;;;;;;;18.10;96.50;;;;;;6244893;23;19908;-67
2023/01/22 14:52:59;;;;;;;;;;;18.10;96.50;;;;;;6244236;23;19904;-68
2023/01/22 14:55:27;;;;;;;;;;;18.10;96.50;;;;;;6244760;23;19910;-67
2023/01/22 14:57:56;;;;;;;;;;;18.10;96.40;;;;;;6245565;23;19939;-67
2023/01/22 15:00:22;;;;;;;;;;;18.00;96.40;;;;;;6244335;23;20331;-67
2023/01/22 15:02:49;;;;;;;;;;;18.00;96.40;;;;;;6243982;23;19911;-67
2023/01/22 15:05:16;;;;;;;;;;;18.10;96.40;;;;;;6244960;23;19915;-67
2023/01/22 15:07:42;;;;;;;;;;;18.00;96.40;;;;;;6244941;23;19911;-67
2023/01/22 15:10:10;;;;;;;;;;;18.00;96.40;;;;;;6244600;23;19919;-67
2023/01/22 15:12:36;;;;;;;;;;;18.00;96.40;;;;;;6242731;23;19923;-67
2023/01/22 15:15:03;;;;;;;;;;;18.00;96.30;;;;;;6244335;23;19986;-67
2023/01/22 15:17:30;;;;;;;;;;;18.00;96.30;;;;;;6243880;23;19911;-67
2023/01/22 15:19:57;;;;;;;;;;;18.00;96.30;;;;;;6244597;23;19903;-67
2023/01/22 15:22:23;;;;;;;;;;;18.00;96.10;;;;;;6244592;23;19908;-67
2023/01/22 15:24:50;;;;;;;;;;;18.00;96.00;;;;;;6217737;23;20365;-67
2023/01/22 15:27:17;;;;;;;;;;;18.00;95.90;;;;;;6244441;23;19908;-67
2023/01/22 15:29:47;;;;;;;;;;;18.00;95.80;;;;;;6244924;23;19922;-67
2023/01/22 15:32:13;;;;;;;;;;;18.00;95.80;;;;;;6217960;23;20259;-67
2023/01/22 15:34:40;;;;;;;;;;;18.00;95.80;;;;;;6243726;23;19958;-67
2023/01/22 15:37:07;;;;;;;;;;;18.00;95.70;;;;;;6244362;22;19911;-67
2023/01/22 15:39:33;;;;;;;;;;;18.00;95.70;;;;;;6245214;23;19915;-67
2023/01/22 15:42:00;;;;;;;;;;;18.00;95.70;;;;;;6244545;23;19911;-68
2023/01/22 15:44:27;;;;;;;;;;;18.00;95.60;;;;;;6217412;23;19904;-67
2023/01/22 15:46:56;;;;;;;;;;;18.00;95.60;;;;;;6244852;23;19985;-67
2023/01/22 15:49:22;;;;;;;;;;;18.00;95.60;;;;;;6245201;23;19912;-68
2023/01/22 15:51:49;;;;;;;;;;;18.00;95.40;;;;;;6244835;23;19910;-68
2023/01/22 15:54:15;;;;;;;;;;;18.00;95.40;;;;;;6244072;23;19966;-68
2023/01/22 15:56:42;;;;;;;;;;;17.90;95.20;;;;;;6244764;23;20283;-68
2023/01/22 15:59:09;;;;;;;;;;;17.90;95.20;;;;;;6245500;23;19904;-68
2023/01/22 16:01:36;;;;;;;;;;;17.90;95.20;;;;;;6244794;23;19958;-68
2023/01/22 16:04:03;;;;;;;;;;;17.90;95.20;;;;;;6244173;23;19911;-68
2023/01/22 16:06:31;;;;;;;;;;;17.80;95.10;;;;;;6244719;23;19907;-68
2023/01/22 16:08:58;;;;;;;;;;;17.90;95.20;;;;;;6243638;23;19922;-68
2023/01/22 16:11:25;;;;;;;;;;;17.90;95.10;;;;;;6244087;23;19904;-68
2023/01/22 16:13:52;;;;;;;;;;;17.90;95.10;;;;;;6243267;23;19965;-68
2023/01/22 16:16:22;;;;;;;;;;;17.90;95.10;;;;;;6243911;23;20274;-67
2023/01/22 16:18:49;;;;;;;;;;;18.00;95.20;;;;;;6246050;23;19910;-67
2023/01/22 16:21:16;;;;;;;;;;;18.00;95.10;;;;;;6245499;23;19934;-68
2023/01/22 16:23:44;;;;;;;;;;;18.00;95.10;;;;;;6245501;23;19908;-67
2023/01/22 16:26:18;;;;;;;;;;;18.00;95.10;;;;;;6245542;23;20035;-67
2023/01/22 16:28:45;;;;;;;;;;;18.00;94.90;;;;;;6246690;23;19912;-67
2023/01/22 16:31:12;;;;;;;;;;;18.00;94.90;;;;;;6246108;23;19911;-67
2023/01/22 16:33:41;;;;;;;;;;;17.90;94.80;;;;;;6245688;23;20273;-67
2023/01/22 16:36:08;;;;;;;;;;;17.90;94.80;;;;;;6245910;23;19935;-67
2023/01/22 16:38:35;;;;;;;;;;;18.00;94.90;;;;;;6218862;23;20235;-67
2023/01/22 16:41:20;;;;;;;;;;;18.00;94.80;;;;;;6246280;23;19903;-67
2023/01/22 16:43:47;;;;;;;;;;;18.00;94.90;;;;;;6246655;23;19904;-67
2023/01/22 16:46:14;;;;;;;;;;;18.00;94.90;;;;;;6275595;22;20337;-72
2023/01/22 16:48:40;;;;;;;;;;;18.00;94.80;;;;;;6339138;22;19922;-72
2023/01/22 16:51:07;;;;;;;;;;;18.00;94.80;;;;;;6338703;22;19902;-72
2023/01/22 16:53:33;;;;;;;;;;;18.00;94.80;;;;;;6315721;22;19903;-72
2023/01/22 16:56:00;;;;;;;;;;;18.00;94.70;;;;;;6307001;22;19903;-72
2023/01/22 16:58:27;;;;;;;;;;;18.00;94.60;;;;;;6307120;22;19956;-72
2023/01/22 17:00:53;;;;;;;;;;;18.00;94.70;;;;;;6308369;22;19903;-72
2023/01/22 17:03:20;;;;;;;;;;;18.00;94.70;;;;;;6307200;22;19914;-72
2023/01/22 17:05:49;;;;;;;;;;;18.00;94.60;;;;;;6307380;22;19903;-72
2023/01/22 17:08:16;;;;;;;;;;;18.00;94.60;;;;;;6306713;22;19915;-72
2023/01/22 17:10:42;;;;;;;;;;;18.00;94.60;;;;;;6307975;22;19903;-72
2023/01/22 17:13:09;;;;;;;;;;;18.00;94.70;;;;;;6306932;22;19903;-72
2023/01/22 17:15:38;;;;;;;;;;;18.00;94.70;;;;;;6307735;22;19914;-72
2023/01/22 17:18:05;;;;;;;;;;;18.00;94.70;;;;;;6306952;22;20036;-73
2023/01/22 17:20:31;;;;;;;;;;;18.00;94.70;;;;;;6307814;22;19910;-72
2023/01/22 17:22:58;;;;;;;;;;;18.00;94.60;;;;;;6307462;22;19934;-72
2023/01/22 17:25:25;;;;;;;;;;;18.00;94.60;;;;;;6307358;22;19978;-73
2023/01/22 17:27:51;;;;;;;;;;;18.00;94.50;;;;;;6306368;22;19926;-73
2023/01/22 17:30:18;;;;;;;;;;;17.90;94.60;;;;;;6307648;22;19910;-73
2023/01/22 17:32:45;;;;;;;;;;;18.00;94.50;;;;;;6307440;22;19978;-72
2023/01/22 17:35:12;;;;;;;;;;;17.90;94.50;;;;;;6279968;22;19914;-72
2023/01/22 17:37:38;;;;;;;;;;;17.90;94.50;;;;;;6306086;22;19977;-73
2023/01/22 17:40:05;;;;;;;;;;;17.90;94.40;;;;;;6307331;22;19903;-74
2023/01/22 17:42:32;;;;;;;;;;;17.80;94.30;;;;;;6307359;22;19902;-77
2023/01/22 17:44:59;;;;;;;;;;;17.80;94.30;;;;;;6280216;22;20220;-74
2023/01/22 17:47:25;;;;;;;;;;;17.90;94.30;;;;;;6306319;22;20339;-73
2023/01/22 17:49:54;;;;;;;;;;;17.90;94.40;;;;;;6305936;22;19911;-73
2023/01/22 17:52:22;;;;;;;;;;;17.80;94.20;;;;;;6307453;22;20000;-74
2023/01/22 17:54:49;;;;;;;;;;;17.80;94.20;;;;;;6307306;22;19956;-73
2023/01/22 17:57:15;;;;;;;;;;;17.80;94.20;;;;;;6306499;22;19903;-73
2023/01/22 17:59:42;;;;;;;;;;;17.80;94.10;;;;;;6304964;22;19998;-74
2023/01/22 18:02:10;;;;;;;;;;;17.80;94.20;;;;;;6305931;22;20306;-79
2023/01/22 18:04:36;;;;;;;;;;;17.80;94.10;;;;;;6305644;22;20283;-77
2023/01/22 18:07:03;;;;;;;;;;;17.80;94.00;;;;;;6305635;22;19903;-76
2023/01/22 18:09:30;;;;;;;;;;;17.80;93.90;;;;;;6306561;22;19911;-72
2023/01/22 18:11:58;;;;;;;;;;;17.80;93.90;;;;;;6306445;22;19926;-74
2023/01/22 18:14:27;;;;;;;;;;;17.80;94.00;;;;;;6306806;22;19974;-75
2023/01/22 18:16:53;;;;;;;;;;;17.80;93.90;;;;;;6305911;22;19926;-78
2023/01/22 18:19:22;;;;;;;;;;;17.70;94.00;;;;;;6306841;22;20285;-76
2023/01/22 18:21:49;;;;;;;;;;;17.70;94.00;;;;;;6304885;22;19982;-76
2023/01/22 18:24:16;;;;;;;;;;;17.80;94.10;;;;;;6306668;22;19910;-73
2023/01/22 18:26:43;;;;;;;;;;;17.70;94.10;;;;;;6306135;22;19907;-74
2023/01/22 18:29:10;;;;;;;;;;;17.70;94.20;;;;;;6306664;22;19918;-73
2023/01/22 18:31:37;;;;;;;;;;;17.70;94.20;;;;;;6306965;22;19929;-73
2023/01/22 18:34:04;;;;;;;;;;;17.80;94.20;;;;;;6305363;22;19910;-75
2023/01/22 18:36:32;;;;;;;;;;;17.80;94.10;;;;;;6306876;22;19903;-75
2023/01/22 18:38:59;;;;;;;;;;;17.70;94.10;;;;;;6306810;22;19910;-75
2023/01/22 18:41:26;;;;;;;;;;;17.80;94.20;;;;;;6252427;22;19934;-74
2023/01/22 18:43:56;;;;;;;;;;;17.70;94.20;;;;;;6305457;22;19903;-74
2023/01/22 18:46:24;;;;;;;;;;;17.70;94.20;;;;;;6306094;22;19922;-75
2023/01/22 18:48:54;;;;;;;;;;;17.70;94.20;;;;;;6305996;22;20422;-75
2023/01/22 18:51:21;;;;;;;;;;;17.70;94.20;;;;;;6306521;22;19918;-74
2023/01/22 18:53:47;;;;;;;;;;;17.70;94.30;;;;;;6304636;22;19910;-73
2023/01/22 18:56:14;;;;;;;;;;;17.70;94.20;;;;;;6306147;22;19903;-74
2023/01/22 18:58:43;;;;;;;;;;;17.70;94.30;;;;;;6305831;22;19977;-73
2023/01/22 19:01:12;;;;;;;;;;;17.70;94.20;;;;;;6306023;22;19937;-74
2023/01/22 19:03:39;;;;;;;;;;;17.70;94.20;;;;;;6306622;22;19949;-72
2023/01/22 19:06:16;;;;;;;;;;;17.70;94.10;;;;;;6303930;22;19903;-75
2023/01/22 19:08:44;;;;;;;;;;;17.70;94.10;;;;;;6305599;22;19910;-78
2023/01/22 19:11:11;;;;;;;;;;;17.70;94.20;;;;;;6306179;22;19977;-74
2023/01/22 19:13:38;;;;;;;;;;;17.70;94.30;;;;;;6304375;22;19926;-74
2023/01/22 19:16:06;;;;;;;;;;;17.70;94.40;;;;;;6305902;22;19909;-75
2023/01/22 19:18:32;;;;;;;;;;;17.70;94.40;;;;;;6306597;22;19903;-74
2023/01/22 19:21:05;;;;;;;;;;;17.70;94.50;;;;;;6306239;22;19962;-74
2023/01/22 19:23:33;;;;;;;;;;;17.80;94.50;;;;;;6306691;22;19903;-74
2023/01/22 19:26:14;;;;;;;;;;;17.70;94.40;;;;;;6305922;22;19903;-74
2023/01/22 19:28:41;;;;;;;;;;;17.80;94.40;;;;;;6279552;22;20359;-73
2023/01/22 19:31:17;;;;;;;;;;;17.80;94.40;;;;;;6306063;22;19992;-73
2023/01/22 19:33:44;;;;;;;;;;;17.80;94.40;;;;;;6306435;22;19903;-73
2023/01/22 19:36:11;;;;;;;;;;;17.80;94.60;;;;;;6305610;22;19965;-73
2023/01/22 19:38:38;;;;;;;;;;;17.80;94.50;;;;;;6306015;22;19956;-74
2023/01/22 19:41:05;;;;;;;;;;;17.80;94.50;;;;;;6279182;22;19907;-74
2023/01/22 19:43:31;;;;;;;;;;;17.80;94.50;;;;;;6306088;22;19922;-74
2023/01/22 19:46:02;;;;;;;;;;;17.80;94.30;;;;;;6306124;22;19911;-74
2023/01/22 19:48:30;;;;;;;;;;;17.80;94.30;;;;;;6278771;22;19911;-74
2023/01/22 19:51:00;;;;;;;;;;;17.80;94.30;;;;;;6307154;22;20341;-74
2023/01/22 19:53:27;;;;;;;;;;;17.80;94.30;;;;;;6308447;22;20387;-74
2023/01/22 19:55:53;;;;;;;;;;;17.80;94.40;;;;;;6308559;22;19903;-73
2023/01/22 19:58:20;;;;;;;;;;;17.90;94.50;;;;;;6307080;22;19915;-74
2023/01/22 20:00:47;;;;;;;;;;;18.00;94.60;;;;;;6308388;22;20264;-73
2023/01/22 20:03:13;;;;;;;;;;;18.00;94.60;;;;;;6308508;22;20238;-73
2023/01/22 20:05:40;;;;;;;;;;;18.00;94.50;;;;;;6308294;22;19907;-73
2023/01/22 20:08:07;;;;;;;;;;;18.10;94.50;;;;;;6307858;22;19926;-73
2023/01/22 20:10:36;;;;;;;;;;;18.10;94.60;;;;;;6307909;22;19902;-73
2023/01/22 20:13:06;;;;;;;;;;;18.20;94.60;;;;;;6307202;22;19981;-74
2023/01/22 20:15:37;;;;;;;;;;;18.20;94.60;;;;;;6307896;22;19903;-74
2023/01/22 20:18:04;;;;;;;;;;;18.20;94.60;;;;;;6307868;22;19903;-74
2023/01/22 20:20:31;;;;;;;;;;;18.20;94.70;;;;;;6308374;22;19910;-74
2023/01/22 20:22:58;;;;;;;;;;;18.30;94.60;;;;;;6307968;22;19903;-75
2023/01/22 20:25:25;;;;;;;;;;;18.30;94.70;;;;;;6308628;22;19914;-73
2023/01/22 20:27:51;;;;;;;;;;;18.40;94.70;;;;;;6307889;22;19985;-74
2023/01/22 20:30:19;;;;;;;;;;;18.50;94.70;;;;;;6307592;22;19918;-74
2023/01/22 20:32:45;;;;;;;;;;;18.60;94.70;;;;;;6306823;22;19907;-74
2023/01/22 20:35:14;;;;;;;;;;;18.60;94.80;;;;;;6308016;22;19903;-74
2023/01/22 20:37:41;;;;;;;;;;;18.70;94.80;;;;;;6308066;22;19911;-75
2023/01/22 20:40:08;;;;;;;;;;;18.70;94.80;;;;;;6308198;22;19911;-72
2023/01/22 20:42:35;;;;;;;;;;;18.80;94.80;;;;;;6307976;22;20362;-75
2023/01/22 20:45:01;;;;;;;;;;;18.80;94.80;;;;;;6308248;22;20005;-75
2023/01/22 20:47:28;;;;;;;;;;;18.90;94.80;;;;;;6307434;22;19961;-72
2023/01/22 20:49:55;;;;;;;;;;;18.90;94.70;;;;;;6307593;22;19911;-74
2023/01/22 20:52:21;;;;;;;;;;;19.00;94.90;;;;;;6308227;22;19916;-73
2023/01/22 20:54:48;;;;;;;;;;;19.00;94.80;;;;;;6307583;22;19914;-73
